首页
METAR-TAF:

METAR-TAF

机场 :

哥伦比亚, 南卡罗来纳州, 美国

纬度: 33-56-31N, 经度: 081-07-05W, 海拔: 71米

当前天气观测

该预报发布于40分钟前的13:56 UTC
风速10节,风向东转东南
温度 17°C
湿度 72%
气压 1027 hPa
能見度: 16.1公里
多云层高于8000英尺
阴天层高于10000英尺

METAR: KCAE 221356Z 11010KT 10SM BKN080 OVC100 17/12 A3032 RMK AO2 SLP266 T01720117

时间: 10:36 (14:36 UTC)

预报

该预报发布于48分钟前的13:48 UTC
预报有效从22日的 14点(UTC)到 23日的 12点(UTC)
风速8节,风向
能見度: 10公里
多云层高于7000英尺
从 22日的 1700点(UTC)
风速10节,风向东转东南
能見度: 10公里
多云层高于5000英尺
阴天层高于7000英尺
从 23日的 0300点(UTC)
风速10节,风向东转东南
能見度: 10公里
阴天层高于2500英尺
小阵雨
从 23日的 0800点(UTC)
风速12节,风向
能見度: 10公里
阴天层高于2000英尺
小雨

TAF: KCAE 221348Z 2214/2312 10008KT P6SM BKN070 FM221700 11010KT P6SM BKN050 OVC070 FM230300 11010KT P6SM -SHRA OVC025 FM230800 10012KT P6SM -RA OVC020 WS015/12040KT

超过4000个机场的气象观测和天气预报(METAR&TAF报告)。

可查询的气象台以黄色和红色小点在地图上表示。

将鼠标移到小点上方,可查看气象台名称。

然后点击查看天气观测和预报。

如需切换地图:点击带黑十字的绿色按钮放大地图;点击带横线的绿色按钮缩小地图;或者点击绿色箭头查看邻近地区的地图。


METAR-TAF: